sensor_id;sensor_type;location;lat;lon;timestamp;P1;durP1;ratioP1;P2;durP2;ratioP2
56927;SDS011;60850;52.502;13.426;2023-06-26T00:01:56;17.40;;;11.05;;
56927;SDS011;60850;52.502;13.426;2023-06-26T00:04:23;14.40;;;11.27;;
56927;SDS011;60850;52.502;13.426;2023-06-26T00:06:51;13.55;;;10.57;;
56927;SDS011;60850;52.502;13.426;2023-06-26T00:09:18;13.88;;;10.73;;
56927;SDS011;60850;52.502;13.426;2023-06-26T00:11:46;14.35;;;10.43;;
56927;SDS011;60850;52.502;13.426;2023-06-26T00:14:13;14.77;;;11.65;;
56927;SDS011;60850;52.502;13.426;2023-06-26T00:16:40;15.23;;;11.05;;
56927;SDS011;60850;52.502;13.426;2023-06-26T00:19:07;15.60;;;11.63;;
56927;SDS011;60850;52.502;13.426;2023-06-26T00:21:35;13.73;;;10.25;;
56927;SDS011;60850;52.502;13.426;2023-06-26T00:24:02;15.82;;;10.63;;
56927;SDS011;60850;52.502;13.426;2023-06-26T00:26:29;14.68;;;10.85;;
56927;SDS011;60850;52.502;13.426;2023-06-26T00:28:57;15.65;;;10.52;;
56927;SDS011;60850;52.502;13.426;2023-06-26T00:31:25;14.70;;;10.75;;
56927;SDS011;60850;52.502;13.426;2023-06-26T00:33:52;15.85;;;11.48;;
56927;SDS011;60850;52.502;13.426;2023-06-26T00:36:19;14.75;;;10.68;;
56927;SDS011;60850;52.502;13.426;2023-06-26T00:38:48;15.73;;;10.63;;
56927;SDS011;60850;52.502;13.426;2023-06-26T00:41:15;14.73;;;11.18;;
56927;SDS011;60850;52.502;13.426;2023-06-26T00:43:42;16.40;;;10.82;;
56927;SDS011;60850;52.502;13.426;2023-06-26T00:46:12;14.98;;;10.82;;
56927;SDS011;60850;52.502;13.426;2023-06-26T00:48:41;15.75;;;12.18;;
56927;SDS011;60850;52.502;13.426;2023-06-26T00:51:09;15.02;;;11.93;;
56927;SDS011;60850;52.502;13.426;2023-06-26T00:53:36;12.90;;;10.88;;
56927;SDS011;60850;52.502;13.426;2023-06-26T00:56:04;15.35;;;10.93;;
56927;SDS011;60850;52.502;13.426;2023-06-26T00:58:32;13.30;;;10.70;;
56927;SDS011;60850;52.502;13.426;2023-06-26T01:00:59;16.50;;;11.98;;
56927;SDS011;60850;52.502;13.426;2023-06-26T01:03:28;14.52;;;11.20;;
56927;SDS011;60850;52.502;13.426;2023-06-26T01:05:55;15.65;;;11.88;;
56927;SDS011;60850;52.502;13.426;2023-06-26T01:08:25;13.75;;;11.38;;
56927;SDS011;60850;52.502;13.426;2023-06-26T01:10:54;15.50;;;11.75;;
56927;SDS011;60850;52.502;13.426;2023-06-26T01:13:21;15.75;;;12.23;;
56927;SDS011;60850;52.502;13.426;2023-06-26T01:15:50;15.05;;;11.88;;
56927;SDS011;60850;52.502;13.426;2023-06-26T01:18:18;13.82;;;10.98;;
56927;SDS011;60850;52.502;13.426;2023-06-26T01:20:46;15.02;;;10.90;;
56927;SDS011;60850;52.502;13.426;2023-06-26T01:23:15;13.65;;;10.77;;
56927;SDS011;60850;52.502;13.426;2023-06-26T01:25:52;16.47;;;10.43;;
56927;SDS011;60850;52.502;13.426;2023-06-26T01:28:29;14.15;;;11.43;;
56927;SDS011;60850;52.502;13.426;2023-06-26T01:30:58;16.27;;;12.43;;
56927;SDS011;60850;52.502;13.426;2023-06-26T01:33:26;14.60;;;11.38;;
56927;SDS011;60850;52.502;13.426;2023-06-26T01:35:54;14.48;;;12.57;;
56927;SDS011;60850;52.502;13.426;2023-06-26T01:38:21;16.27;;;13.05;;
56927;SDS011;60850;52.502;13.426;2023-06-26T01:40:49;16.35;;;12.13;;
56927;SDS011;60850;52.502;13.426;2023-06-26T01:43:18;16.52;;;12.65;;
56927;SDS011;60850;52.502;13.426;2023-06-26T01:45:54;15.32;;;12.63;;
56927;SDS011;60850;52.502;13.426;2023-06-26T01:48:26;17.42;;;14.20;;
56927;SDS011;60850;52.502;13.426;2023-06-26T01:50:57;16.05;;;12.60;;
56927;SDS011;60850;52.502;13.426;2023-06-26T01:53:27;16.17;;;12.55;;
56927;SDS011;60850;52.502;13.426;2023-06-26T01:56:03;15.68;;;12.15;;
56927;SDS011;60850;52.502;13.426;2023-06-26T01:58:34;14.98;;;12.20;;
56927;SDS011;60850;52.502;13.426;2023-06-26T02:01:05;16.77;;;12.55;;
56927;SDS011;60850;52.502;13.426;2023-06-26T02:03:32;16.55;;;12.55;;
56927;SDS011;60850;52.502;13.426;2023-06-26T02:05:59;14.88;;;12.73;;
56927;SDS011;60850;52.502;13.426;2023-06-26T02:08:26;18.48;;;12.60;;
56927;SDS011;60850;52.502;13.426;2023-06-26T02:10:53;16.05;;;12.95;;
56927;SDS011;60850;52.502;13.426;2023-06-26T02:13:20;17.15;;;12.98;;
56927;SDS011;60850;52.502;13.426;2023-06-26T02:15:48;15.93;;;11.98;;
56927;SDS011;60850;52.502;13.426;2023-06-26T02:18:16;14.65;;;12.05;;
56927;SDS011;60850;52.502;13.426;2023-06-26T02:20:44;17.55;;;13.10;;
56927;SDS011;60850;52.502;13.426;2023-06-26T02:23:11;16.48;;;13.18;;
56927;SDS011;60850;52.502;13.426;2023-06-26T02:25:38;17.63;;;13.07;;
56927;SDS011;60850;52.502;13.426;2023-06-26T02:28:05;15.82;;;12.32;;
56927;SDS011;60850;52.502;13.426;2023-06-26T02:30:32;15.63;;;12.60;;
56927;SDS011;60850;52.502;13.426;2023-06-26T02:32:59;16.65;;;12.55;;
56927;SDS011;60850;52.502;13.426;2023-06-26T02:35:28;15.95;;;12.82;;
56927;SDS011;60850;52.502;13.426;2023-06-26T02:37:55;16.30;;;12.38;;
56927;SDS011;60850;52.502;13.426;2023-06-26T02:40:22;15.95;;;12.45;;
56927;SDS011;60850;52.502;13.426;2023-06-26T02:42:49;15.45;;;11.95;;
56927;SDS011;60850;52.502;13.426;2023-06-26T02:45:16;18.88;;;13.00;;
56927;SDS011;60850;52.502;13.426;2023-06-26T02:47:43;17.02;;;13.25;;
56927;SDS011;60850;52.502;13.426;2023-06-26T02:50:11;17.45;;;13.55;;
56927;SDS011;60850;52.502;13.426;2023-06-26T02:52:39;17.75;;;13.95;;
56927;SDS011;60850;52.502;13.426;2023-06-26T02:55:06;14.85;;;13.05;;
56927;SDS011;60850;52.502;13.426;2023-06-26T02:57:33;20.10;;;13.75;;
56927;SDS011;60850;52.502;13.426;2023-06-26T03:00:01;15.80;;;13.35;;
56927;SDS011;60850;52.502;13.426;2023-06-26T03:02:28;17.50;;;13.98;;
56927;SDS011;60850;52.502;13.426;2023-06-26T03:04:55;18.23;;;13.98;;
56927;SDS011;60850;52.502;13.426;2023-06-26T03:07:23;17.08;;;14.18;;
56927;SDS011;60850;52.502;13.426;2023-06-26T03:09:51;18.48;;;13.75;;
56927;SDS011;60850;52.502;13.426;2023-06-26T03:12:18;15.98;;;13.98;;
56927;SDS011;60850;52.502;13.426;2023-06-26T03:14:46;19.13;;;14.50;;
56927;SDS011;60850;52.502;13.426;2023-06-26T03:17:13;17.65;;;14.63;;
56927;SDS011;60850;52.502;13.426;2023-06-26T03:19:40;16.92;;;14.77;;
56927;SDS011;60850;52.502;13.426;2023-06-26T03:22:07;18.02;;;14.77;;
56927;SDS011;60850;52.502;13.426;2023-06-26T03:24:35;17.25;;;14.20;;
56927;SDS011;60850;52.502;13.426;2023-06-26T03:27:03;17.58;;;15.27;;
56927;SDS011;60850;52.502;13.426;2023-06-26T03:29:31;17.42;;;14.40;;
56927;SDS011;60850;52.502;13.426;2023-06-26T03:31:57;18.90;;;14.88;;
56927;SDS011;60850;52.502;13.426;2023-06-26T03:34:25;20.70;;;14.88;;
56927;SDS011;60850;52.502;13.426;2023-06-26T03:36:52;21.10;;;15.13;;
56927;SDS011;60850;52.502;13.426;2023-06-26T03:39:19;18.50;;;15.10;;
56927;SDS011;60850;52.502;13.426;2023-06-26T03:41:46;20.02;;;15.15;;
56927;SDS011;60850;52.502;13.426;2023-06-26T03:44:15;19.67;;;15.48;;
56927;SDS011;60850;52.502;13.426;2023-06-26T03:46:42;17.98;;;15.07;;
56927;SDS011;60850;52.502;13.426;2023-06-26T03:49:09;18.10;;;15.48;;
56927;SDS011;60850;52.502;13.426;2023-06-26T03:51:36;18.35;;;14.77;;
56927;SDS011;60850;52.502;13.426;2023-06-26T03:54:03;17.65;;;15.75;;
56927;SDS011;60850;52.502;13.426;2023-06-26T03:56:30;18.00;;;16.10;;
56927;SDS011;60850;52.502;13.426;2023-06-26T03:58:58;19.92;;;15.38;;
56927;SDS011;60850;52.502;13.426;2023-06-26T04:01:26;18.35;;;15.13;;
56927;SDS011;60850;52.502;13.426;2023-06-26T04:03:54;17.65;;;14.65;;
56927;SDS011;60850;52.502;13.426;2023-06-26T04:06:21;17.85;;;14.35;;
56927;SDS011;60850;52.502;13.426;2023-06-26T04:08:48;19.17;;;14.77;;
56927;SDS011;60850;52.502;13.426;2023-06-26T04:11:15;18.27;;;15.40;;
56927;SDS011;60850;52.502;13.426;2023-06-26T04:13:44;15.85;;;13.52;;
56927;SDS011;60850;52.502;13.426;2023-06-26T04:16:11;16.45;;;14.75;;
56927;SDS011;60850;52.502;13.426;2023-06-26T04:18:40;19.42;;;15.15;;
56927;SDS011;60850;52.502;13.426;2023-06-26T04:21:07;17.38;;;13.75;;
56927;SDS011;60850;52.502;13.426;2023-06-26T04:23:37;18.98;;;14.38;;
56927;SDS011;60850;52.502;13.426;2023-06-26T04:26:04;19.38;;;15.50;;
56927;SDS011;60850;52.502;13.426;2023-06-26T04:28:32;16.95;;;14.85;;
56927;SDS011;60850;52.502;13.426;2023-06-26T04:30:59;21.95;;;14.85;;
56927;SDS011;60850;52.502;13.426;2023-06-26T04:33:27;18.35;;;14.05;;
56927;SDS011;60850;52.502;13.426;2023-06-26T04:35:55;18.60;;;14.27;;
56927;SDS011;60850;52.502;13.426;2023-06-26T04:38:23;17.13;;;14.43;;
56927;SDS011;60850;52.502;13.426;2023-06-26T04:40:50;18.17;;;14.20;;
56927;SDS011;60850;52.502;13.426;2023-06-26T04:43:17;18.05;;;14.40;;
56927;SDS011;60850;52.502;13.426;2023-06-26T04:45:44;17.27;;;14.35;;
56927;SDS011;60850;52.502;13.426;2023-06-26T04:48:11;16.33;;;13.85;;
56927;SDS011;60850;52.502;13.426;2023-06-26T04:50:39;19.85;;;14.88;;
56927;SDS011;60850;52.502;13.426;2023-06-26T04:53:08;17.45;;;13.85;;
56927;SDS011;60850;52.502;13.426;2023-06-26T04:55:35;18.38;;;14.93;;
56927;SDS011;60850;52.502;13.426;2023-06-26T04:58:02;17.40;;;13.32;;
56927;SDS011;60850;52.502;13.426;2023-06-26T05:00:29;17.58;;;13.80;;
56927;SDS011;60850;52.502;13.426;2023-06-26T05:02:57;16.17;;;13.55;;
56927;SDS011;60850;52.502;13.426;2023-06-26T05:05:27;18.98;;;14.98;;
56927;SDS011;60850;52.502;13.426;2023-06-26T05:07:54;16.73;;;13.73;;
56927;SDS011;60850;52.502;13.426;2023-06-26T05:10:23;18.15;;;13.88;;
56927;SDS011;60850;52.502;13.426;2023-06-26T05:12:51;15.15;;;13.38;;
56927;SDS011;60850;52.502;13.426;2023-06-26T05:15:17;16.02;;;13.63;;
56927;SDS011;60850;52.502;13.426;2023-06-26T05:17:45;18.77;;;13.88;;
56927;SDS011;60850;52.502;13.426;2023-06-26T05:20:12;15.55;;;12.77;;
56927;SDS011;60850;52.502;13.426;2023-06-26T05:22:39;14.93;;;12.88;;
56927;SDS011;60850;52.502;13.426;2023-06-26T05:25:07;16.20;;;13.70;;
56927;SDS011;60850;52.502;13.426;2023-06-26T05:27:38;16.25;;;12.70;;
56927;SDS011;60850;52.502;13.426;2023-06-26T05:30:06;15.57;;;12.52;;
56927;SDS011;60850;52.502;13.426;2023-06-26T05:32:34;19.15;;;12.80;;
56927;SDS011;60850;52.502;13.426;2023-06-26T05:35:02;13.82;;;12.35;;
56927;SDS011;60850;52.502;13.426;2023-06-26T05:37:30;14.85;;;13.25;;
56927;SDS011;60850;52.502;13.426;2023-06-26T05:39:58;18.20;;;12.20;;
56927;SDS011;60850;52.502;13.426;2023-06-26T05:42:26;12.98;;;11.43;;
56927;SDS011;60850;52.502;13.426;2023-06-26T05:44:55;16.48;;;12.32;;
56927;SDS011;60850;52.502;13.426;2023-06-26T05:47:22;14.32;;;11.85;;
56927;SDS011;60850;52.502;13.426;2023-06-26T05:49:49;14.88;;;11.95;;
56927;SDS011;60850;52.502;13.426;2023-06-26T05:52:17;13.38;;;11.95;;
56927;SDS011;60850;52.502;13.426;2023-06-26T05:54:44;11.88;;;10.52;;
56927;SDS011;60850;52.502;13.426;2023-06-26T05:57:12;11.70;;;10.27;;
56927;SDS011;60850;52.502;13.426;2023-06-26T05:59:40;11.48;;;10.18;;
56927;SDS011;60850;52.502;13.426;2023-06-26T06:02:12;13.98;;;11.90;;
56927;SDS011;60850;52.502;13.426;2023-06-26T06:04:39;11.55;;;10.30;;
56927;SDS011;60850;52.502;13.426;2023-06-26T06:07:06;13.52;;;10.38;;
56927;SDS011;60850;52.502;13.426;2023-06-26T06:09:33;11.77;;;10.30;;
56927;SDS011;60850;52.502;13.426;2023-06-26T06:12:00;11.30;;;9.15;;
56927;SDS011;60850;52.502;13.426;2023-06-26T06:14:29;11.18;;;9.25;;
56927;SDS011;60850;52.502;13.426;2023-06-26T06:16:56;11.93;;;9.23;;
56927;SDS011;60850;52.502;13.426;2023-06-26T06:19:24;9.88;;;8.60;;
56927;SDS011;60850;52.502;13.426;2023-06-26T06:21:52;10.50;;;9.18;;
56927;SDS011;60850;52.502;13.426;2023-06-26T06:24:19;11.18;;;8.98;;
56927;SDS011;60850;52.502;13.426;2023-06-26T06:26:46;9.32;;;8.27;;
56927;SDS011;60850;52.502;13.426;2023-06-26T06:29:13;8.85;;;7.78;;
56927;SDS011;60850;52.502;13.426;2023-06-26T06:31:40;11.63;;;8.07;;
56927;SDS011;60850;52.502;13.426;2023-06-26T06:34:07;8.98;;;7.68;;
56927;SDS011;60850;52.502;13.426;2023-06-26T06:36:36;10.80;;;8.60;;
56927;SDS011;60850;52.502;13.426;2023-06-26T06:39:03;8.38;;;7.50;;
56927;SDS011;60850;52.502;13.426;2023-06-26T06:41:30;8.52;;;7.72;;
56927;SDS011;60850;52.502;13.426;2023-06-26T06:43:57;9.63;;;7.18;;
56927;SDS011;60850;52.502;13.426;2023-06-26T06:46:24;8.32;;;7.20;;
56927;SDS011;60850;52.502;13.426;2023-06-26T06:48:52;8.80;;;7.95;;
56927;SDS011;60850;52.502;13.426;2023-06-26T06:51:19;7.10;;;6.22;;
56927;SDS011;60850;52.502;13.426;2023-06-26T06:53:48;9.98;;;7.53;;
56927;SDS011;60850;52.502;13.426;2023-06-26T06:56:15;7.35;;;6.65;;
56927;SDS011;60850;52.502;13.426;2023-06-26T06:58:42;8.15;;;6.57;;
56927;SDS011;60850;52.502;13.426;2023-06-26T07:01:11;9.60;;;6.85;;
56927;SDS011;60850;52.502;13.426;2023-06-26T07:03:38;7.78;;;5.93;;
56927;SDS011;60850;52.502;13.426;2023-06-26T07:06:06;6.88;;;6.25;;
56927;SDS011;60850;52.502;13.426;2023-06-26T07:08:33;12.82;;;7.72;;
56927;SDS011;60850;52.502;13.426;2023-06-26T07:11:02;7.30;;;5.72;;
56927;SDS011;60850;52.502;13.426;2023-06-26T07:13:29;8.25;;;5.93;;
56927;SDS011;60850;52.502;13.426;2023-06-26T07:15:56;6.85;;;5.60;;
56927;SDS011;60850;52.502;13.426;2023-06-26T07:18:23;7.28;;;6.10;;
56927;SDS011;60850;52.502;13.426;2023-06-26T07:20:50;7.15;;;6.45;;
56927;SDS011;60850;52.502;13.426;2023-06-26T07:23:17;6.28;;;5.78;;
56927;SDS011;60850;52.502;13.426;2023-06-26T07:25:45;7.22;;;6.63;;
56927;SDS011;60850;52.502;13.426;2023-06-26T07:28:13;6.70;;;6.00;;
56927;SDS011;60850;52.502;13.426;2023-06-26T07:30:40;7.43;;;6.25;;
56927;SDS011;60850;52.502;13.426;2023-06-26T07:33:07;6.53;;;5.80;;
56927;SDS011;60850;52.502;13.426;2023-06-26T07:35:35;6.47;;;5.80;;
56927;SDS011;60850;52.502;13.426;2023-06-26T07:38:02;7.18;;;6.25;;
56927;SDS011;60850;52.502;13.426;2023-06-26T07:40:30;6.28;;;5.45;;
56927;SDS011;60850;52.502;13.426;2023-06-26T07:42:57;6.47;;;5.50;;
56927;SDS011;60850;52.502;13.426;2023-06-26T07:45:25;6.13;;;5.32;;
56927;SDS011;60850;52.502;13.426;2023-06-26T07:47:52;6.00;;;5.40;;
56927;SDS011;60850;52.502;13.426;2023-06-26T07:50:20;6.15;;;5.35;;
56927;SDS011;60850;52.502;13.426;2023-06-26T07:52:49;6.57;;;5.55;;
56927;SDS011;60850;52.502;13.426;2023-06-26T07:55:18;6.10;;;5.18;;
56927;SDS011;60850;52.502;13.426;2023-06-26T07:57:45;5.55;;;4.97;;
56927;SDS011;60850;52.502;13.426;2023-06-26T08:00:13;5.28;;;4.78;;
56927;SDS011;60850;52.502;13.426;2023-06-26T08:02:42;8.38;;;4.80;;
56927;SDS011;60850;52.502;13.426;2023-06-26T08:05:10;7.50;;;5.03;;
56927;SDS011;60850;52.502;13.426;2023-06-26T08:07:37;5.18;;;4.65;;
56927;SDS011;60850;52.502;13.426;2023-06-26T08:10:04;8.10;;;4.45;;
56927;SDS011;60850;52.502;13.426;2023-06-26T08:12:32;6.38;;;4.05;;
56927;SDS011;60850;52.502;13.426;2023-06-26T08:14:59;5.95;;;4.20;;
56927;SDS011;60850;52.502;13.426;2023-06-26T08:17:28;4.88;;;4.10;;
56927;SDS011;60850;52.502;13.426;2023-06-26T08:19:57;4.45;;;3.97;;
56927;SDS011;60850;52.502;13.426;2023-06-26T08:22:24;5.03;;;4.40;;
56927;SDS011;60850;52.502;13.426;2023-06-26T08:24:51;5.40;;;4.70;;
56927;SDS011;60850;52.502;13.426;2023-06-26T08:27:18;4.70;;;4.18;;
56927;SDS011;60850;52.502;13.426;2023-06-26T08:29:45;4.50;;;4.10;;
56927;SDS011;60850;52.502;13.426;2023-06-26T08:32:12;4.80;;;4.18;;
56927;SDS011;60850;52.502;13.426;2023-06-26T08:34:39;6.30;;;4.30;;
56927;SDS011;60850;52.502;13.426;2023-06-26T08:37:08;7.85;;;4.22;;
56927;SDS011;60850;52.502;13.426;2023-06-26T08:39:35;4.90;;;3.70;;
56927;SDS011;60850;52.502;13.426;2023-06-26T08:42:02;4.10;;;3.72;;
56927;SDS011;60850;52.502;13.426;2023-06-26T08:44:30;6.95;;;4.30;;
56927;SDS011;60850;52.502;13.426;2023-06-26T08:46:59;4.68;;;4.22;;
56927;SDS011;60850;52.502;13.426;2023-06-26T08:49:28;4.22;;;3.92;;
56927;SDS011;60850;52.502;13.426;2023-06-26T08:52:06;3.90;;;3.60;;
56927;SDS011;60850;52.502;13.426;2023-06-26T08:54:46;4.22;;;3.80;;
56927;SDS011;60850;52.502;13.426;2023-06-26T08:59:45;3.92;;;3.63;;
56927;SDS011;60850;52.502;13.426;2023-06-26T09:02:13;7.15;;;3.80;;
56927;SDS011;60850;52.502;13.426;2023-06-26T09:04:41;4.65;;;4.25;;
56927;SDS011;60850;52.502;13.426;2023-06-26T09:07:08;4.78;;;3.72;;
56927;SDS011;60850;52.502;13.426;2023-06-26T09:09:37;4.05;;;3.55;;
56927;SDS011;60850;52.502;13.426;2023-06-26T09:12:04;4.93;;;3.60;;
56927;SDS011;60850;52.502;13.426;2023-06-26T09:14:32;4.00;;;3.60;;
56927;SDS011;60850;52.502;13.426;2023-06-26T09:16:58;4.90;;;3.58;;
56927;SDS011;60850;52.502;13.426;2023-06-26T09:19:26;4.47;;;3.50;;
56927;SDS011;60850;52.502;13.426;2023-06-26T09:21:53;4.18;;;3.15;;
56927;SDS011;60850;52.502;13.426;2023-06-26T09:24:21;3.67;;;3.38;;
56927;SDS011;60850;52.502;13.426;2023-06-26T09:26:50;4.63;;;3.80;;
56927;SDS011;60850;52.502;13.426;2023-06-26T09:29:18;4.63;;;4.13;;
56927;SDS011;60850;52.502;13.426;2023-06-26T09:31:46;4.75;;;3.67;;
56927;SDS011;60850;52.502;13.426;2023-06-26T09:34:13;4.22;;;3.83;;
56927;SDS011;60850;52.502;13.426;2023-06-26T09:36:40;6.70;;;3.65;;
56927;SDS011;60850;52.502;13.426;2023-06-26T09:39:12;4.40;;;3.97;;
56927;SDS011;60850;52.502;13.426;2023-06-26T09:41:40;4.72;;;3.88;;
56927;SDS011;60850;52.502;13.426;2023-06-26T09:44:10;5.40;;;4.22;;
56927;SDS011;60850;52.502;13.426;2023-06-26T09:46:38;4.50;;;4.10;;
56927;SDS011;60850;52.502;13.426;2023-06-26T09:49:06;5.43;;;4.28;;
56927;SDS011;60850;52.502;13.426;2023-06-26T09:51:36;4.60;;;3.97;;
56927;SDS011;60850;52.502;13.426;2023-06-26T09:54:04;5.88;;;4.13;;
56927;SDS011;60850;52.502;13.426;2023-06-26T09:56:32;4.65;;;4.25;;
56927;SDS011;60850;52.502;13.426;2023-06-26T09:59:00;4.50;;;3.90;;
56927;SDS011;60850;52.502;13.426;2023-06-26T10:01:31;6.90;;;4.53;;
56927;SDS011;60850;52.502;13.426;2023-06-26T10:03:59;5.45;;;4.07;;
56927;SDS011;60850;52.502;13.426;2023-06-26T10:06:27;4.43;;;3.80;;
56927;SDS011;60850;52.502;13.426;2023-06-26T10:11:27;4.93;;;4.40;;
56927;SDS011;60850;52.502;13.426;2023-06-26T10:13:59;4.45;;;4.05;;
56927;SDS011;60850;52.502;13.426;2023-06-26T10:16:31;4.55;;;3.80;;
56927;SDS011;60850;52.502;13.426;2023-06-26T10:19:01;4.28;;;3.67;;
56927;SDS011;60850;52.502;13.426;2023-06-26T10:21:31;4.70;;;4.30;;
56927;SDS011;60850;52.502;13.426;2023-06-26T10:24:01;4.30;;;3.90;;
56927;SDS011;60850;52.502;13.426;2023-06-26T10:26:30;4.30;;;3.90;;
56927;SDS011;60850;52.502;13.426;2023-06-26T10:31:30;4.85;;;3.75;;
56927;SDS011;60850;52.502;13.426;2023-06-26T10:33:59;5.18;;;4.35;;
56927;SDS011;60850;52.502;13.426;2023-06-26T10:36:27;4.38;;;3.40;;
56927;SDS011;60850;52.502;13.426;2023-06-26T10:38:57;4.38;;;3.45;;
56927;SDS011;60850;52.502;13.426;2023-06-26T10:41:28;4.60;;;3.88;;
56927;SDS011;60850;52.502;13.426;2023-06-26T10:44:07;4.45;;;3.45;;
56927;SDS011;60850;52.502;13.426;2023-06-26T10:49:20;3.58;;;3.20;;
56927;SDS011;60850;52.502;13.426;2023-06-26T10:51:48;4.50;;;4.10;;
56927;SDS011;60850;52.502;13.426;2023-06-26T10:54:16;4.30;;;3.88;;
56927;SDS011;60850;52.502;13.426;2023-06-26T10:56:44;3.90;;;3.50;;
56927;SDS011;60850;52.502;13.426;2023-06-26T10:59:13;4.32;;;3.72;;
56927;SDS011;60850;52.502;13.426;2023-06-26T11:01:42;7.43;;;3.92;;
56927;SDS011;60850;52.502;13.426;2023-06-26T11:04:12;5.72;;;4.28;;
56927;SDS011;60850;52.502;13.426;2023-06-26T11:06:41;5.88;;;4.38;;
56927;SDS011;60850;52.502;13.426;2023-06-26T11:09:15;5.82;;;4.03;;
56927;SDS011;60850;52.502;13.426;2023-06-26T11:12:00;7.22;;;4.43;;
56927;SDS011;60850;52.502;13.426;2023-06-26T11:14:33;3.97;;;3.53;;
56927;SDS011;60850;52.502;13.426;2023-06-26T11:17:03;4.97;;;4.10;;
56927;SDS011;60850;52.502;13.426;2023-06-26T11:19:33;4.55;;;4.05;;
56927;SDS011;60850;52.502;13.426;2023-06-26T11:22:04;6.95;;;5.03;;
56927;SDS011;60850;52.502;13.426;2023-06-26T11:24:31;5.68;;;5.07;;
56927;SDS011;60850;52.502;13.426;2023-06-26T11:27:00;4.97;;;4.18;;
56927;SDS011;60850;52.502;13.426;2023-06-26T11:29:29;5.75;;;4.57;;
56927;SDS011;60850;52.502;13.426;2023-06-26T11:32:01;9.20;;;4.47;;
56927;SDS011;60850;52.502;13.426;2023-06-26T11:34:33;6.15;;;4.10;;
56927;SDS011;60850;52.502;13.426;2023-06-26T11:37:00;4.38;;;3.97;;
56927;SDS011;60850;52.502;13.426;2023-06-26T11:39:31;6.50;;;3.90;;
56927;SDS011;60850;52.502;13.426;2023-06-26T11:41:59;5.28;;;4.00;;
56927;SDS011;60850;52.502;13.426;2023-06-26T11:44:31;4.60;;;4.05;;
56927;SDS011;60850;52.502;13.426;2023-06-26T11:46:58;6.32;;;4.43;;
56927;SDS011;60850;52.502;13.426;2023-06-26T11:49:25;6.07;;;4.43;;
56927;SDS011;60850;52.502;13.426;2023-06-26T11:51:57;5.63;;;4.10;;
56927;SDS011;60850;52.502;13.426;2023-06-26T11:54:24;6.35;;;4.70;;
56927;SDS011;60850;52.502;13.426;2023-06-26T11:56:53;7.20;;;4.63;;
56927;SDS011;60850;52.502;13.426;2023-06-26T11:59:23;5.65;;;3.88;;
56927;SDS011;60850;52.502;13.426;2023-06-26T12:01:50;7.38;;;4.43;;
56927;SDS011;60850;52.502;13.426;2023-06-26T12:04:18;8.02;;;4.55;;
56927;SDS011;60850;52.502;13.426;2023-06-26T12:06:47;5.55;;;4.40;;
56927;SDS011;60850;52.502;13.426;2023-06-26T12:09:18;5.55;;;4.78;;
56927;SDS011;60850;52.502;13.426;2023-06-26T12:11:46;8.90;;;4.55;;
56927;SDS011;60850;52.502;13.426;2023-06-26T12:14:15;5.38;;;4.35;;
56927;SDS011;60850;52.502;13.426;2023-06-26T12:16:44;4.68;;;4.05;;
56927;SDS011;60850;52.502;13.426;2023-06-26T12:19:12;6.55;;;4.25;;
56927;SDS011;60850;52.502;13.426;2023-06-26T12:21:49;5.68;;;4.18;;
56927;SDS011;60850;52.502;13.426;2023-06-26T12:24:19;5.60;;;4.57;;
56927;SDS011;60850;52.502;13.426;2023-06-26T12:26:49;10.85;;;5.93;;
56927;SDS011;60850;52.502;13.426;2023-06-26T12:29:19;4.97;;;4.47;;
56927;SDS011;60850;52.502;13.426;2023-06-26T12:31:51;7.43;;;4.40;;
56927;SDS011;60850;52.502;13.426;2023-06-26T12:34:19;6.00;;;4.50;;
56927;SDS011;60850;52.502;13.426;2023-06-26T12:36:47;7.18;;;4.28;;
56927;SDS011;60850;52.502;13.426;2023-06-26T12:39:16;5.82;;;4.70;;
56927;SDS011;60850;52.502;13.426;2023-06-26T12:41:46;5.88;;;5.05;;
56927;SDS011;60850;52.502;13.426;2023-06-26T12:44:20;5.97;;;4.93;;
56927;SDS011;60850;52.502;13.426;2023-06-26T12:46:48;9.27;;;5.40;;
56927;SDS011;60850;52.502;13.426;2023-06-26T12:49:16;8.07;;;5.28;;
56927;SDS011;60850;52.502;13.426;2023-06-26T12:51:44;8.20;;;5.47;;
56927;SDS011;60850;52.502;13.426;2023-06-26T12:54:12;7.18;;;5.85;;
56927;SDS011;60850;52.502;13.426;2023-06-26T12:56:39;7.10;;;5.00;;
56927;SDS011;60850;52.502;13.426;2023-06-26T12:59:08;5.97;;;5.15;;
56927;SDS011;60850;52.502;13.426;2023-06-26T13:01:35;7.28;;;5.40;;
56927;SDS011;60850;52.502;13.426;2023-06-26T13:04:02;6.57;;;5.80;;
56927;SDS011;60850;52.502;13.426;2023-06-26T13:06:29;7.55;;;5.50;;
56927;SDS011;60850;52.502;13.426;2023-06-26T13:08:57;8.07;;;5.35;;
56927;SDS011;60850;52.502;13.426;2023-06-26T13:11:25;6.47;;;5.32;;
56927;SDS011;60850;52.502;13.426;2023-06-26T13:13:52;9.65;;;5.50;;
56927;SDS011;60850;52.502;13.426;2023-06-26T13:16:20;7.78;;;5.25;;
56927;SDS011;60850;52.502;13.426;2023-06-26T13:18:47;8.48;;;6.25;;
56927;SDS011;60850;52.502;13.426;2023-06-26T13:21:14;14.20;;;8.90;;
56927;SDS011;60850;52.502;13.426;2023-06-26T13:23:43;8.13;;;6.05;;
56927;SDS011;60850;52.502;13.426;2023-06-26T13:26:11;6.70;;;5.28;;
56927;SDS011;60850;52.502;13.426;2023-06-26T13:28:38;6.18;;;5.57;;
56927;SDS011;60850;52.502;13.426;2023-06-26T13:31:05;5.82;;;5.22;;
56927;SDS011;60850;52.502;13.426;2023-06-26T13:33:34;7.35;;;5.80;;
56927;SDS011;60850;52.502;13.426;2023-06-26T13:36:01;6.35;;;5.63;;
56927;SDS011;60850;52.502;13.426;2023-06-26T13:38:32;6.70;;;5.38;;
56927;SDS011;60850;52.502;13.426;2023-06-26T13:40:59;8.13;;;6.53;;
56927;SDS011;60850;52.502;13.426;2023-06-26T13:43:27;9.80;;;6.82;;
56927;SDS011;60850;52.502;13.426;2023-06-26T13:45:55;7.85;;;5.97;;
56927;SDS011;60850;52.502;13.426;2023-06-26T13:48:22;8.00;;;6.25;;
56927;SDS011;60850;52.502;13.426;2023-06-26T13:50:52;14.95;;;9.75;;
56927;SDS011;60850;52.502;13.426;2023-06-26T13:53:19;9.15;;;7.68;;
56927;SDS011;60850;52.502;13.426;2023-06-26T13:55:47;7.28;;;6.32;;
56927;SDS011;60850;52.502;13.426;2023-06-26T13:58:14;9.98;;;7.30;;
56927;SDS011;60850;52.502;13.426;2023-06-26T14:00:41;7.30;;;6.45;;
56927;SDS011;60850;52.502;13.426;2023-06-26T14:03:10;7.28;;;6.35;;
56927;SDS011;60850;52.502;13.426;2023-06-26T14:05:37;8.75;;;6.72;;
56927;SDS011;60850;52.502;13.426;2023-06-26T14:08:07;14.63;;;11.25;;
56927;SDS011;60850;52.502;13.426;2023-06-26T14:10:36;9.77;;;7.75;;
56927;SDS011;60850;52.502;13.426;2023-06-26T14:13:03;6.97;;;5.75;;
56927;SDS011;60850;52.502;13.426;2023-06-26T14:15:31;7.47;;;5.57;;
56927;SDS011;60850;52.502;13.426;2023-06-26T14:17:59;9.10;;;6.30;;
56927;SDS011;60850;52.502;13.426;2023-06-26T14:20:28;9.65;;;7.63;;
56927;SDS011;60850;52.502;13.426;2023-06-26T14:22:58;12.85;;;7.50;;
56927;SDS011;60850;52.502;13.426;2023-06-26T14:25:27;107.28;;;10.90;;
56927;SDS011;60850;52.502;13.426;2023-06-26T14:27:55;15.18;;;5.00;;
56927;SDS011;60850;52.502;13.426;2023-06-26T14:30:25;25.67;;;6.47;;
56927;SDS011;60850;52.502;13.426;2023-06-26T14:32:57;18.02;;;5.15;;
56927;SDS011;60850;52.502;13.426;2023-06-26T14:35:24;10.98;;;5.20;;
56927;SDS011;60850;52.502;13.426;2023-06-26T14:37:51;13.15;;;4.45;;
56927;SDS011;60850;52.502;13.426;2023-06-26T14:40:19;15.32;;;5.68;;